sensor_id;sensor_type;location;lat;lon;timestamp;temperature;humidity
40952;DHT22;26682;51.660;19.338;2023-06-24T00:01:59;17.60;99.90
40952;DHT22;26682;51.660;19.338;2023-06-24T00:04:42;17.60;99.90
40952;DHT22;26682;51.660;19.338;2023-06-24T00:07:24;17.70;99.90
40952;DHT22;26682;51.660;19.338;2023-06-24T00:10:09;17.60;99.90
40952;DHT22;26682;51.660;19.338;2023-06-24T00:12:51;17.60;99.90
40952;DHT22;26682;51.660;19.338;2023-06-24T00:15:34;17.60;99.90
40952;DHT22;26682;51.660;19.338;2023-06-24T00:18:16;17.60;99.90
40952;DHT22;26682;51.660;19.338;2023-06-24T00:20:59;17.60;99.90
40952;DHT22;26682;51.660;19.338;2023-06-24T00:23:43;17.60;99.90
40952;DHT22;26682;51.660;19.338;2023-06-24T00:26:25;17.60;99.90
40952;DHT22;26682;51.660;19.338;2023-06-24T00:29:07;17.50;99.90
40952;DHT22;26682;51.660;19.338;2023-06-24T00:31:51;17.50;99.90
40952;DHT22;26682;51.660;19.338;2023-06-24T00:34:34;17.50;99.90
40952;DHT22;26682;51.660;19.338;2023-06-24T00:37:16;17.50;99.90
40952;DHT22;26682;51.660;19.338;2023-06-24T00:39:59;17.50;99.90
40952;DHT22;26682;51.660;19.338;2023-06-24T00:42:44;17.40;99.90
40952;DHT22;26682;51.660;19.338;2023-06-24T00:45:27;17.40;99.90
40952;DHT22;26682;51.660;19.338;2023-06-24T00:48:10;17.40;99.90
40952;DHT22;26682;51.660;19.338;2023-06-24T00:50:52;17.30;99.90
40952;DHT22;26682;51.660;19.338;2023-06-24T00:53:34;17.30;99.90
40952;DHT22;26682;51.660;19.338;2023-06-24T00:56:17;17.30;99.90
40952;DHT22;26682;51.660;19.338;2023-06-24T00:59:04;17.20;99.90
40952;DHT22;26682;51.660;19.338;2023-06-24T01:01:48;17.20;99.90
40952;DHT22;26682;51.660;19.338;2023-06-24T01:04:36;17.20;99.90
40952;DHT22;26682;51.660;19.338;2023-06-24T01:07:18;17.00;99.90
40952;DHT22;26682;51.660;19.338;2023-06-24T01:10:05;17.10;1.00
40952;DHT22;26682;51.660;19.338;2023-06-24T01:12:50;17.00;1.00
40952;DHT22;26682;51.660;19.338;2023-06-24T01:15:34;17.00;1.00
40952;DHT22;26682;51.660;19.338;2023-06-24T01:18:26;16.90;1.00
40952;DHT22;26682;51.660;19.338;2023-06-24T01:21:24;16.90;87.00
40952;DHT22;26682;51.660;19.338;2023-06-24T01:33:23;16.70;99.90
40952;DHT22;26682;51.660;19.338;2023-06-24T01:36:11;16.70;99.90
40952;DHT22;26682;51.660;19.338;2023-06-24T01:39:14;16.70;99.90
40952;DHT22;26682;51.660;19.338;2023-06-24T01:42:09;16.70;99.90
40952;DHT22;26682;51.660;19.338;2023-06-24T01:44:54;16.70;99.90
40952;DHT22;26682;51.660;19.338;2023-06-24T01:47:39;16.70;99.90
40952;DHT22;26682;51.660;19.338;2023-06-24T01:50:23;16.70;99.90
40952;DHT22;26682;51.660;19.338;2023-06-24T01:53:07;16.70;99.90
40952;DHT22;26682;51.660;19.338;2023-06-24T01:55:52;16.60;99.90
40952;DHT22;26682;51.660;19.338;2023-06-24T01:58:36;16.60;99.90
40952;DHT22;26682;51.660;19.338;2023-06-24T02:01:19;16.60;99.90
40952;DHT22;26682;51.660;19.338;2023-06-24T02:04:03;16.60;99.90
40952;DHT22;26682;51.660;19.338;2023-06-24T02:06:48;16.60;99.90
40952;DHT22;26682;51.660;19.338;2023-06-24T02:09:32;16.60;99.90
40952;DHT22;26682;51.660;19.338;2023-06-24T02:12:15;16.60;99.90
40952;DHT22;26682;51.660;19.338;2023-06-24T02:14:59;16.60;99.90
40952;DHT22;26682;51.660;19.338;2023-06-24T02:17:44;16.60;99.90
40952;DHT22;26682;51.660;19.338;2023-06-24T02:20:27;16.50;99.90
40952;DHT22;26682;51.660;19.338;2023-06-24T02:23:11;16.60;99.90
40952;DHT22;26682;51.660;19.338;2023-06-24T02:25:55;16.60;99.90
40952;DHT22;26682;51.660;19.338;2023-06-24T02:28:38;16.50;99.90
40952;DHT22;26682;51.660;19.338;2023-06-24T02:31:21;16.50;99.90
40952;DHT22;26682;51.660;19.338;2023-06-24T02:34:04;16.40;99.90
40952;DHT22;26682;51.660;19.338;2023-06-24T02:36:46;16.50;99.90
40952;DHT22;26682;51.660;19.338;2023-06-24T02:39:29;16.50;99.90
40952;DHT22;26682;51.660;19.338;2023-06-24T02:42:12;16.50;99.90
40952;DHT22;26682;51.660;19.338;2023-06-24T02:44:54;16.50;99.90
40952;DHT22;26682;51.660;19.338;2023-06-24T02:47:37;16.40;99.90
40952;DHT22;26682;51.660;19.338;2023-06-24T02:50:21;16.50;99.90
40952;DHT22;26682;51.660;19.338;2023-06-24T02:53:05;16.40;1.00
40952;DHT22;26682;51.660;19.338;2023-06-24T02:55:51;16.40;1.00
40952;DHT22;26682;51.660;19.338;2023-06-24T02:58:36;16.50;1.00
40952;DHT22;26682;51.660;19.338;2023-06-24T03:01:25;16.40;1.00
40952;DHT22;26682;51.660;19.338;2023-06-24T03:04:10;16.40;1.00
40952;DHT22;26682;51.660;19.338;2023-06-24T03:06:53;16.40;63.30
40952;DHT22;26682;51.660;19.338;2023-06-24T03:09:36;16.40;99.90
40952;DHT22;26682;51.660;19.338;2023-06-24T03:12:19;16.40;99.90
40952;DHT22;26682;51.660;19.338;2023-06-24T03:15:01;16.40;99.90
40952;DHT22;26682;51.660;19.338;2023-06-24T03:17:44;16.40;99.90
40952;DHT22;26682;51.660;19.338;2023-06-24T03:20:27;16.50;99.90
40952;DHT22;26682;51.660;19.338;2023-06-24T03:23:11;16.50;99.90
40952;DHT22;26682;51.660;19.338;2023-06-24T03:25:54;16.50;99.90
40952;DHT22;26682;51.660;19.338;2023-06-24T03:28:36;16.50;99.90
40952;DHT22;26682;51.660;19.338;2023-06-24T03:31:28;16.50;99.90
40952;DHT22;26682;51.660;19.338;2023-06-24T03:34:11;16.50;99.90
40952;DHT22;26682;51.660;19.338;2023-06-24T03:36:54;16.50;99.90
40952;DHT22;26682;51.660;19.338;2023-06-24T03:39:37;16.60;99.90
40952;DHT22;26682;51.660;19.338;2023-06-24T03:42:20;16.60;99.90
40952;DHT22;26682;51.660;19.338;2023-06-24T03:45:03;16.60;99.90
40952;DHT22;26682;51.660;19.338;2023-06-24T03:47:46;16.70;99.90
40952;DHT22;26682;51.660;19.338;2023-06-24T03:50:29;16.70;99.90
40952;DHT22;26682;51.660;19.338;2023-06-24T03:53:11;16.70;99.90
40952;DHT22;26682;51.660;19.338;2023-06-24T03:55:54;16.70;99.90
40952;DHT22;26682;51.660;19.338;2023-06-24T03:58:36;16.80;99.90
40952;DHT22;26682;51.660;19.338;2023-06-24T04:01:19;16.70;99.90
40952;DHT22;26682;51.660;19.338;2023-06-24T04:04:02;16.80;99.90
40952;DHT22;26682;51.660;19.338;2023-06-24T04:06:44;16.80;99.90
40952;DHT22;26682;51.660;19.338;2023-06-24T04:09:34;16.80;99.90
40952;DHT22;26682;51.660;19.338;2023-06-24T04:12:17;16.90;99.90
40952;DHT22;26682;51.660;19.338;2023-06-24T04:15:03;16.90;99.90
40952;DHT22;26682;51.660;19.338;2023-06-24T04:17:48;16.90;99.90
40952;DHT22;26682;51.660;19.338;2023-06-24T04:20:30;17.00;99.90
40952;DHT22;26682;51.660;19.338;2023-06-24T04:23:13;17.00;99.90
40952;DHT22;26682;51.660;19.338;2023-06-24T04:25:56;17.00;99.90
40952;DHT22;26682;51.660;19.338;2023-06-24T04:28:39;17.00;99.90
40952;DHT22;26682;51.660;19.338;2023-06-24T04:31:22;17.10;99.90
40952;DHT22;26682;51.660;19.338;2023-06-24T04:34:04;17.10;99.90
40952;DHT22;26682;51.660;19.338;2023-06-24T04:36:47;17.20;99.90
40952;DHT22;26682;51.660;19.338;2023-06-24T04:39:30;17.20;99.90
40952;DHT22;26682;51.660;19.338;2023-06-24T04:42:12;17.20;99.90
40952;DHT22;26682;51.660;19.338;2023-06-24T04:44:57;17.30;99.90
40952;DHT22;26682;51.660;19.338;2023-06-24T04:47:39;17.30;99.90
40952;DHT22;26682;51.660;19.338;2023-06-24T04:50:21;17.30;99.90
40952;DHT22;26682;51.660;19.338;2023-06-24T04:53:04;17.40;99.90
40952;DHT22;26682;51.660;19.338;2023-06-24T04:55:46;17.40;99.90
40952;DHT22;26682;51.660;19.338;2023-06-24T04:58:28;17.30;99.90
40952;DHT22;26682;51.660;19.338;2023-06-24T05:01:11;17.40;99.90
40952;DHT22;26682;51.660;19.338;2023-06-24T05:03:54;17.40;99.90
40952;DHT22;26682;51.660;19.338;2023-06-24T05:06:36;17.40;99.90
40952;DHT22;26682;51.660;19.338;2023-06-24T05:09:18;17.40;99.90
40952;DHT22;26682;51.660;19.338;2023-06-24T05:12:01;17.40;99.90
40952;DHT22;26682;51.660;19.338;2023-06-24T05:14:43;17.40;99.90
40952;DHT22;26682;51.660;19.338;2023-06-24T05:17:25;17.40;37.20
40952;DHT22;26682;51.660;19.338;2023-06-24T05:20:08;17.40;1.00
40952;DHT22;26682;51.660;19.338;2023-06-24T05:22:51;17.50;1.00
40952;DHT22;26682;51.660;19.338;2023-06-24T05:25:33;17.40;1.00
40952;DHT22;26682;51.660;19.338;2023-06-24T05:28:16;17.50;1.00
40952;DHT22;26682;51.660;19.338;2023-06-24T05:30:58;17.50;4.90
40952;DHT22;26682;51.660;19.338;2023-06-24T05:33:40;17.60;19.00
40952;DHT22;26682;51.660;19.338;2023-06-24T05:36:23;17.60;34.20
40952;DHT22;26682;51.660;19.338;2023-06-24T05:39:06;17.70;94.60
40952;DHT22;26682;51.660;19.338;2023-06-24T05:41:50;17.70;99.90
40952;DHT22;26682;51.660;19.338;2023-06-24T05:44:33;17.80;99.90
40952;DHT22;26682;51.660;19.338;2023-06-24T05:47:15;18.00;99.90
40952;DHT22;26682;51.660;19.338;2023-06-24T05:49:58;17.90;99.90
40952;DHT22;26682;51.660;19.338;2023-06-24T05:52:41;17.90;99.90
40952;DHT22;26682;51.660;19.338;2023-06-24T05:55:23;17.90;99.90
40952;DHT22;26682;51.660;19.338;2023-06-24T05:58:06;17.80;99.90
40952;DHT22;26682;51.660;19.338;2023-06-24T06:00:49;18.00;99.90
40952;DHT22;26682;51.660;19.338;2023-06-24T06:03:31;17.90;99.90
40952;DHT22;26682;51.660;19.338;2023-06-24T06:06:14;17.90;99.90
40952;DHT22;26682;51.660;19.338;2023-06-24T06:08:57;17.80;99.90
40952;DHT22;26682;51.660;19.338;2023-06-24T06:11:40;17.80;99.90
40952;DHT22;26682;51.660;19.338;2023-06-24T06:14:22;17.80;99.90
40952;DHT22;26682;51.660;19.338;2023-06-24T06:17:05;17.80;99.90
40952;DHT22;26682;51.660;19.338;2023-06-24T06:19:48;17.80;99.90
40952;DHT22;26682;51.660;19.338;2023-06-24T06:22:33;17.90;99.90
40952;DHT22;26682;51.660;19.338;2023-06-24T06:25:20;17.90;99.90
40952;DHT22;26682;51.660;19.338;2023-06-24T06:28:02;17.90;99.90
40952;DHT22;26682;51.660;19.338;2023-06-24T06:30:45;17.90;99.90
40952;DHT22;26682;51.660;19.338;2023-06-24T06:33:28;18.00;99.90
40952;DHT22;26682;51.660;19.338;2023-06-24T06:36:10;17.80;99.90
40952;DHT22;26682;51.660;19.338;2023-06-24T06:38:53;17.90;99.90
40952;DHT22;26682;51.660;19.338;2023-06-24T06:41:36;17.90;99.90
40952;DHT22;26682;51.660;19.338;2023-06-24T06:44:18;17.90;99.90
40952;DHT22;26682;51.660;19.338;2023-06-24T06:47:01;17.90;99.90
40952;DHT22;26682;51.660;19.338;2023-06-24T06:49:43;18.00;99.90
40952;DHT22;26682;51.660;19.338;2023-06-24T06:52:25;18.10;99.90
40952;DHT22;26682;51.660;19.338;2023-06-24T06:55:10;18.20;99.90
40952;DHT22;26682;51.660;19.338;2023-06-24T06:57:53;18.10;99.90
40952;DHT22;26682;51.660;19.338;2023-06-24T07:00:36;18.10;99.90
40952;DHT22;26682;51.660;19.338;2023-06-24T07:03:18;18.10;99.90
40952;DHT22;26682;51.660;19.338;2023-06-24T07:06:01;18.00;99.90
40952;DHT22;26682;51.660;19.338;2023-06-24T07:08:43;18.00;99.90
40952;DHT22;26682;51.660;19.338;2023-06-24T07:11:26;18.10;99.90
40952;DHT22;26682;51.660;19.338;2023-06-24T07:14:09;18.00;95.90
40952;DHT22;26682;51.660;19.338;2023-06-24T07:16:52;18.00;99.90
40952;DHT22;26682;51.660;19.338;2023-06-24T07:19:34;18.10;99.90
40952;DHT22;26682;51.660;19.338;2023-06-24T07:22:16;18.00;99.90
40952;DHT22;26682;51.660;19.338;2023-06-24T07:24:59;18.10;99.90
40952;DHT22;26682;51.660;19.338;2023-06-24T07:27:43;18.00;99.90
40952;DHT22;26682;51.660;19.338;2023-06-24T07:30:25;17.80;70.30
40952;DHT22;26682;51.660;19.338;2023-06-24T07:33:08;17.90;99.90
40952;DHT22;26682;51.660;19.338;2023-06-24T07:35:51;17.90;99.90
40952;DHT22;26682;51.660;19.338;2023-06-24T07:38:35;17.80;99.90
40952;DHT22;26682;51.660;19.338;2023-06-24T07:41:17;17.80;99.90
40952;DHT22;26682;51.660;19.338;2023-06-24T07:44:00;17.80;99.90
40952;DHT22;26682;51.660;19.338;2023-06-24T07:46:44;17.70;99.90
40952;DHT22;26682;51.660;19.338;2023-06-24T07:49:27;17.60;99.90
40952;DHT22;26682;51.660;19.338;2023-06-24T07:52:11;17.60;99.90
40952;DHT22;26682;51.660;19.338;2023-06-24T07:54:53;17.70;99.90
40952;DHT22;26682;51.660;19.338;2023-06-24T07:57:36;17.60;99.90
40952;DHT22;26682;51.660;19.338;2023-06-24T08:00:19;17.50;99.90
40952;DHT22;26682;51.660;19.338;2023-06-24T08:03:01;17.50;99.90
40952;DHT22;26682;51.660;19.338;2023-06-24T08:05:45;17.60;99.90
40952;DHT22;26682;51.660;19.338;2023-06-24T08:08:30;17.60;99.90
40952;DHT22;26682;51.660;19.338;2023-06-24T08:11:13;17.80;99.90
40952;DHT22;26682;51.660;19.338;2023-06-24T08:13:55;17.80;99.90
40952;DHT22;26682;51.660;19.338;2023-06-24T08:16:38;17.80;99.90
40952;DHT22;26682;51.660;19.338;2023-06-24T08:19:20;17.70;99.90
40952;DHT22;26682;51.660;19.338;2023-06-24T08:22:04;17.80;99.90
40952;DHT22;26682;51.660;19.338;2023-06-24T08:24:46;17.80;99.90
40952;DHT22;26682;51.660;19.338;2023-06-24T08:27:29;17.70;65.90
40952;DHT22;26682;51.660;19.338;2023-06-24T08:30:11;17.80;77.80
40952;DHT22;26682;51.660;19.338;2023-06-24T08:32:55;18.00;38.30
40952;DHT22;26682;51.660;19.338;2023-06-24T08:35:38;18.00;1.00
40952;DHT22;26682;51.660;19.338;2023-06-24T08:38:20;18.00;1.00
40952;DHT22;26682;51.660;19.338;2023-06-24T08:41:03;18.20;1.00
40952;DHT22;26682;51.660;19.338;2023-06-24T08:43:46;18.30;1.00
40952;DHT22;26682;51.660;19.338;2023-06-24T08:46:28;18.40;1.00
40952;DHT22;26682;51.660;19.338;2023-06-24T08:49:28;18.60;1.00
40952;DHT22;26682;51.660;19.338;2023-06-24T08:52:14;18.80;1.00
40952;DHT22;26682;51.660;19.338;2023-06-24T08:54:59;19.10;1.00
40952;DHT22;26682;51.660;19.338;2023-06-24T08:57:43;19.30;1.00
40952;DHT22;26682;51.660;19.338;2023-06-24T09:00:26;19.80;1.00
40952;DHT22;26682;51.660;19.338;2023-06-24T09:03:09;19.90;1.00
40952;DHT22;26682;51.660;19.338;2023-06-24T09:05:52;20.10;1.00
40952;DHT22;26682;51.660;19.338;2023-06-24T09:08:35;19.90;99.90
40952;DHT22;26682;51.660;19.338;2023-06-24T09:11:22;19.70;99.90
40952;DHT22;26682;51.660;19.338;2023-06-24T09:14:05;19.90;99.90
40952;DHT22;26682;51.660;19.338;2023-06-24T09:19:37;20.00;99.90
40952;DHT22;26682;51.660;19.338;2023-06-24T09:22:19;19.90;1.00
40952;DHT22;26682;51.660;19.338;2023-06-24T09:25:02;20.00;31.10
40952;DHT22;26682;51.660;19.338;2023-06-24T09:27:48;20.10;2.60
40952;DHT22;26682;51.660;19.338;2023-06-24T09:30:34;20.10;99.90
40952;DHT22;26682;51.660;19.338;2023-06-24T09:33:21;19.80;99.90
40952;DHT22;26682;51.660;19.338;2023-06-24T09:36:05;19.60;99.90
40952;DHT22;26682;51.660;19.338;2023-06-24T09:38:47;19.80;1.00
40952;DHT22;26682;51.660;19.338;2023-06-24T09:41:30;20.00;1.00
40952;DHT22;26682;51.660;19.338;2023-06-24T09:44:13;20.20;99.90
40952;DHT22;26682;51.660;19.338;2023-06-24T09:46:56;20.10;99.90
40952;DHT22;26682;51.660;19.338;2023-06-24T09:49:38;20.00;99.90
40952;DHT22;26682;51.660;19.338;2023-06-24T09:52:21;19.80;99.90
40952;DHT22;26682;51.660;19.338;2023-06-24T09:55:05;19.80;99.90
40952;DHT22;26682;51.660;19.338;2023-06-24T09:57:51;19.50;99.90
40952;DHT22;26682;51.660;19.338;2023-06-24T10:00:35;19.60;1.00
40952;DHT22;26682;51.660;19.338;2023-06-24T10:03:19;19.80;1.00
40952;DHT22;26682;51.660;19.338;2023-06-24T10:06:02;19.60;99.90
40952;DHT22;26682;51.660;19.338;2023-06-24T10:08:45;19.50;99.90
40952;DHT22;26682;51.660;19.338;2023-06-24T10:11:28;19.80;99.90
40952;DHT22;26682;51.660;19.338;2023-06-24T10:14:10;19.90;99.90
40952;DHT22;26682;51.660;19.338;2023-06-24T10:17:03;20.10;99.90
40952;DHT22;26682;51.660;19.338;2023-06-24T10:19:46;20.00;99.90
40952;DHT22;26682;51.660;19.338;2023-06-24T10:22:30;19.90;26.90
40952;DHT22;26682;51.660;19.338;2023-06-24T10:25:13;20.00;27.70
40952;DHT22;26682;51.660;19.338;2023-06-24T10:27:57;20.10;1.00
40952;DHT22;26682;51.660;19.338;2023-06-24T10:30:39;20.10;1.00
40952;DHT22;26682;51.660;19.338;2023-06-24T10:33:24;20.10;99.90
40952;DHT22;26682;51.660;19.338;2023-06-24T10:36:33;20.10;1.00
40952;DHT22;26682;51.660;19.338;2023-06-24T10:39:49;20.40;1.00
40952;DHT22;26682;51.660;19.338;2023-06-24T10:42:42;20.50;99.90
40952;DHT22;26682;51.660;19.338;2023-06-24T10:45:25;20.50;99.90
40952;DHT22;26682;51.660;19.338;2023-06-24T10:48:08;20.40;99.90
40952;DHT22;26682;51.660;19.338;2023-06-24T10:50:51;20.10;99.90
40952;DHT22;26682;51.660;19.338;2023-06-24T10:53:33;20.10;99.90
40952;DHT22;26682;51.660;19.338;2023-06-24T10:56:16;20.20;99.90
40952;DHT22;26682;51.660;19.338;2023-06-24T10:58:58;19.90;99.90
40952;DHT22;26682;51.660;19.338;2023-06-24T11:01:56;19.80;99.90
40952;DHT22;26682;51.660;19.338;2023-06-24T11:04:50;19.70;99.90
40952;DHT22;26682;51.660;19.338;2023-06-24T11:07:37;19.80;99.90
40952;DHT22;26682;51.660;19.338;2023-06-24T11:10:19;20.00;99.90
40952;DHT22;26682;51.660;19.338;2023-06-24T11:13:05;20.10;99.90
40952;DHT22;26682;51.660;19.338;2023-06-24T11:15:48;20.40;99.90
40952;DHT22;26682;51.660;19.338;2023-06-24T11:18:38;20.30;99.90
40952;DHT22;26682;51.660;19.338;2023-06-24T11:21:21;20.40;99.90
40952;DHT22;26682;51.660;19.338;2023-06-24T11:24:10;20.10;98.00
40952;DHT22;26682;51.660;19.338;2023-06-24T11:26:53;19.60;99.00
40952;DHT22;26682;51.660;19.338;2023-06-24T11:29:36;19.80;99.90
40952;DHT22;26682;51.660;19.338;2023-06-24T11:32:18;19.70;99.90
40952;DHT22;26682;51.660;19.338;2023-06-24T11:35:01;19.70;99.90
40952;DHT22;26682;51.660;19.338;2023-06-24T11:37:46;19.70;99.90
40952;DHT22;26682;51.660;19.338;2023-06-24T11:40:31;19.60;99.90
40952;DHT22;26682;51.660;19.338;2023-06-24T11:43:15;19.50;1.00
40952;DHT22;26682;51.660;19.338;2023-06-24T11:45:58;19.40;99.90
40952;DHT22;26682;51.660;19.338;2023-06-24T11:48:40;19.10;1.00
40952;DHT22;26682;51.660;19.338;2023-06-24T11:51:23;18.90;99.90
40952;DHT22;26682;51.660;19.338;2023-06-24T11:54:06;18.90;99.90
40952;DHT22;26682;51.660;19.338;2023-06-24T11:56:52;18.40;1.00
40952;DHT22;26682;51.660;19.338;2023-06-24T11:59:35;18.40;99.90
40952;DHT22;26682;51.660;19.338;2023-06-24T12:02:19;18.30;99.90
40952;DHT22;26682;51.660;19.338;2023-06-24T12:05:02;18.40;99.90
40952;DHT22;26682;51.660;19.338;2023-06-24T12:07:45;18.50;99.90
40952;DHT22;26682;51.660;19.338;2023-06-24T12:10:29;18.40;99.90
40952;DHT22;26682;51.660;19.338;2023-06-24T12:13:12;18.20;99.90
40952;DHT22;26682;51.660;19.338;2023-06-24T12:15:55;18.20;99.90
40952;DHT22;26682;51.660;19.338;2023-06-24T12:18:37;18.20;99.90
40952;DHT22;26682;51.660;19.338;2023-06-24T12:21:20;18.20;99.90
40952;DHT22;26682;51.660;19.338;2023-06-24T12:24:03;18.10;99.90
40952;DHT22;26682;51.660;19.338;2023-06-24T12:26:46;18.10;99.90
40952;DHT22;26682;51.660;19.338;2023-06-24T12:29:29;18.00;99.90
40952;DHT22;26682;51.660;19.338;2023-06-24T12:32:11;18.00;99.90
40952;DHT22;26682;51.660;19.338;2023-06-24T12:34:54;18.00;99.90
40952;DHT22;26682;51.660;19.338;2023-06-24T12:37:36;18.00;99.90
40952;DHT22;26682;51.660;19.338;2023-06-24T12:40:19;18.00;99.90
40952;DHT22;26682;51.660;19.338;2023-06-24T12:43:01;18.10;99.90
40952;DHT22;26682;51.660;19.338;2023-06-24T12:45:44;18.10;99.90
40952;DHT22;26682;51.660;19.338;2023-06-24T12:48:26;18.10;99.90
40952;DHT22;26682;51.660;19.338;2023-06-24T12:51:08;18.20;99.90
40952;DHT22;26682;51.660;19.338;2023-06-24T12:53:51;18.30;99.90
40952;DHT22;26682;51.660;19.338;2023-06-24T12:56:33;18.30;99.90
40952;DHT22;26682;51.660;19.338;2023-06-24T12:59:15;18.30;99.90
40952;DHT22;26682;51.660;19.338;2023-06-24T13:01:58;18.40;99.90
40952;DHT22;26682;51.660;19.338;2023-06-24T13:04:40;18.40;99.90
40952;DHT22;26682;51.660;19.338;2023-06-24T13:07:23;18.50;99.90
40952;DHT22;26682;51.660;19.338;2023-06-24T13:10:06;18.50;99.90
40952;DHT22;26682;51.660;19.338;2023-06-24T13:12:49;18.50;99.90
40952;DHT22;26682;51.660;19.338;2023-06-24T13:15:33;18.50;99.90
40952;DHT22;26682;51.660;19.338;2023-06-24T13:18:19;18.50;99.90
40952;DHT22;26682;51.660;19.338;2023-06-24T13:21:02;18.60;99.90
40952;DHT22;26682;51.660;19.338;2023-06-24T13:23:57;18.60;99.90
40952;DHT22;26682;51.660;19.338;2023-06-24T13:26:39;18.60;65.10
40952;DHT22;26682;51.660;19.338;2023-06-24T13:29:22;18.70;99.90
40952;DHT22;26682;51.660;19.338;2023-06-24T13:32:04;18.80;99.90
40952;DHT22;26682;51.660;19.338;2023-06-24T13:34:47;18.70;13.00
40952;DHT22;26682;51.660;19.338;2023-06-24T13:37:30;18.70;1.00
40952;DHT22;26682;51.660;19.338;2023-06-24T13:40:12;18.70;1.00
40952;DHT22;26682;51.660;19.338;2023-06-24T13:42:55;18.80;96.40
40952;DHT22;26682;51.660;19.338;2023-06-24T13:45:38;18.80;99.90
40952;DHT22;26682;51.660;19.338;2023-06-24T13:48:20;18.90;99.90
40952;DHT22;26682;51.660;19.338;2023-06-24T13:51:02;19.00;84.80
40952;DHT22;26682;51.660;19.338;2023-06-24T13:53:45;19.00;28.60
40952;DHT22;26682;51.660;19.338;2023-06-24T13:56:28;19.20;99.90
40952;DHT22;26682;51.660;19.338;2023-06-24T13:59:11;19.20;1.00
40952;DHT22;26682;51.660;19.338;2023-06-24T14:01:53;19.30;1.00
40952;DHT22;26682;51.660;19.338;2023-06-24T14:04:38;19.50;1.00
40952;DHT22;26682;51.660;19.338;2023-06-24T14:07:23;19.70;21.60
40952;DHT22;26682;51.660;19.338;2023-06-24T14:10:07;19.80;99.90
40952;DHT22;26682;51.660;19.338;2023-06-24T14:12:50;19.80;99.90
40952;DHT22;26682;51.660;19.338;2023-06-24T14:15:32;19.90;99.90
40952;DHT22;26682;51.660;19.338;2023-06-24T14:18:15;19.90;99.90
40952;DHT22;26682;51.660;19.338;2023-06-24T14:20:57;19.80;45.60
40952;DHT22;26682;51.660;19.338;2023-06-24T14:23:40;19.90;21.40
40952;DHT22;26682;51.660;19.338;2023-06-24T14:26:23;19.90;99.90
40952;DHT22;26682;51.660;19.338;2023-06-24T14:29:07;19.90;90.60
40952;DHT22;26682;51.660;19.338;2023-06-24T14:31:49;20.00;1.00
40952;DHT22;26682;51.660;19.338;2023-06-24T14:34:32;20.00;8.90
40952;DHT22;26682;51.660;19.338;2023-06-24T14:37:15;19.90;1.00
40952;DHT22;26682;51.660;19.338;2023-06-24T14:39:57;20.00;1.00
40952;DHT22;26682;51.660;19.338;2023-06-24T14:42:39;20.10;1.00
40952;DHT22;26682;51.660;19.338;2023-06-24T14:45:22;20.20;99.90
40952;DHT22;26682;51.660;19.338;2023-06-24T14:48:06;20.30;99.90
40952;DHT22;26682;51.660;19.338;2023-06-24T14:50:49;20.50;99.90
40952;DHT22;26682;51.660;19.338;2023-06-24T14:53:32;20.60;99.90
40952;DHT22;26682;51.660;19.338;2023-06-24T14:56:14;20.80;99.90
40952;DHT22;26682;51.660;19.338;2023-06-24T14:58:57;20.90;99.90
40952;DHT22;26682;51.660;19.338;2023-06-24T15:01:40;20.80;99.90
40952;DHT22;26682;51.660;19.338;2023-06-24T15:04:22;20.80;99.90
40952;DHT22;26682;51.660;19.338;2023-06-24T15:07:05;20.80;99.90
40952;DHT22;26682;51.660;19.338;2023-06-24T15:09:47;20.70;99.90
40952;DHT22;26682;51.660;19.338;2023-06-24T15:12:29;20.80;99.90
40952;DHT22;26682;51.660;19.338;2023-06-24T15:15:12;20.80;79.10
40952;DHT22;26682;51.660;19.338;2023-06-24T15:17:54;20.80;3.50
40952;DHT22;26682;51.660;19.338;2023-06-24T15:20:37;20.80;1.00
40952;DHT22;26682;51.660;19.338;2023-06-24T15:23:21;20.80;1.00
40952;DHT22;26682;51.660;19.338;2023-06-24T15:26:03;20.80;1.00
40952;DHT22;26682;51.660;19.338;2023-06-24T15:28:46;20.80;1.00
40952;DHT22;26682;51.660;19.338;2023-06-24T15:31:28;20.70;99.90
40952;DHT22;26682;51.660;19.338;2023-06-24T15:34:11;20.70;99.90
40952;DHT22;26682;51.660;19.338;2023-06-24T15:36:53;20.70;99.90
40952;DHT22;26682;51.660;19.338;2023-06-24T15:39:36;20.70;99.90
40952;DHT22;26682;51.660;19.338;2023-06-24T15:42:18;20.70;99.90
40952;DHT22;26682;51.660;19.338;2023-06-24T15:45:01;20.70;99.90
40952;DHT22;26682;51.660;19.338;2023-06-24T15:47:43;20.70;99.90
40952;DHT22;26682;51.660;19.338;2023-06-24T15:50:26;20.60;99.90
40952;DHT22;26682;51.660;19.338;2023-06-24T15:53:08;20.60;99.90
40952;DHT22;26682;51.660;19.338;2023-06-24T15:55:51;20.50;99.90
40952;DHT22;26682;51.660;19.338;2023-06-24T15:58:33;20.60;99.90
40952;DHT22;26682;51.660;19.338;2023-06-24T16:01:15;20.60;99.90
40952;DHT22;26682;51.660;19.338;2023-06-24T16:03:58;20.60;1.00
40952;DHT22;26682;51.660;19.338;2023-06-24T16:06:40;20.60;99.90
40952;DHT22;26682;51.660;19.338;2023-06-24T16:09:23;20.60;99.90
40952;DHT22;26682;51.660;19.338;2023-06-24T16:12:07;20.60;99.90
40952;DHT22;26682;51.660;19.338;2023-06-24T16:14:49;20.60;1.00
40952;DHT22;26682;51.660;19.338;2023-06-24T16:17:32;20.60;1.00
40952;DHT22;26682;51.660;19.338;2023-06-24T16:20:14;20.60;1.00
40952;DHT22;26682;51.660;19.338;2023-06-24T16:22:59;20.70;1.00
40952;DHT22;26682;51.660;19.338;2023-06-24T16:25:44;20.70;99.90
40952;DHT22;26682;51.660;19.338;2023-06-24T16:28:27;20.70;99.90
40952;DHT22;26682;51.660;19.338;2023-06-24T16:31:10;20.70;99.90
40952;DHT22;26682;51.660;19.338;2023-06-24T16:33:52;20.80;99.90
40952;DHT22;26682;51.660;19.338;2023-06-24T16:36:35;20.80;99.90
40952;DHT22;26682;51.660;19.338;2023-06-24T16:39:17;20.90;99.90
40952;DHT22;26682;51.660;19.338;2023-06-24T16:42:03;20.90;99.90
40952;DHT22;26682;51.660;19.338;2023-06-24T16:44:45;21.00;99.90
40952;DHT22;26682;51.660;19.338;2023-06-24T16:47:29;21.00;99.90
40952;DHT22;26682;51.660;19.338;2023-06-24T16:50:12;21.00;99.90
40952;DHT22;26682;51.660;19.338;2023-06-24T16:52:54;21.00;99.90
40952;DHT22;26682;51.660;19.338;2023-06-24T16:55:40;20.90;99.90
40952;DHT22;26682;51.660;19.338;2023-06-24T16:58:22;20.90;99.90
40952;DHT22;26682;51.660;19.338;2023-06-24T17:01:04;20.90;99.90
40952;DHT22;26682;51.660;19.338;2023-06-24T17:03:49;20.80;99.90
40952;DHT22;26682;51.660;19.338;2023-06-24T17:06:32;20.80;99.90
40952;DHT22;26682;51.660;19.338;2023-06-24T17:09:14;20.70;99.90
40952;DHT22;26682;51.660;19.338;2023-06-24T17:11:57;20.70;99.90